createdAt,value
2023-02-05T00:00:20.972Z,16.50
2023-02-05T00:02:47.577Z,19.48
2023-02-05T00:05:14.372Z,19.58
2023-02-05T00:07:40.938Z,15.63
2023-02-05T00:10:07.914Z,19.70
2023-02-05T00:12:34.614Z,18.48
2023-02-05T00:15:01.186Z,18.38
2023-02-05T00:17:28.682Z,19.38
2023-02-05T00:19:55.605Z,18.42
2023-02-05T00:22:22.311Z,23.25
2023-02-05T00:24:48.915Z,22.38
2023-02-05T00:27:15.589Z,16.83
2023-02-05T00:29:42.148Z,18.42
2023-02-05T00:32:08.667Z,21.40
2023-02-05T00:34:35.211Z,18.48
2023-02-05T00:37:01.844Z,21.60
2023-02-05T00:39:28.362Z,24.20
2023-02-05T00:41:55.014Z,19.60
2023-02-05T00:44:21.559Z,20.90
2023-02-05T00:46:48.096Z,15.82
2023-02-05T00:49:14.721Z,17.92
2023-02-05T00:51:41.290Z,20.02
2023-02-05T00:54:07.925Z,20.67
2023-02-05T00:56:34.447Z,15.73
2023-02-05T00:59:02.653Z,21.55
2023-02-05T01:01:29.356Z,18.13
2023-02-05T01:03:56.054Z,25.45
2023-02-05T01:06:22.641Z,23.52
2023-02-05T01:08:49.175Z,22.70
2023-02-05T01:11:16.091Z,25.30
2023-02-05T01:13:42.635Z,21.20
2023-02-05T01:16:10.696Z,21.52
2023-02-05T01:18:37.328Z,25.52
2023-02-05T01:21:04.350Z,22.05
2023-02-05T01:23:30.910Z,16.52
2023-02-05T01:25:57.462Z,25.05
2023-02-05T01:28:24.063Z,14.45
2023-02-05T01:30:51.598Z,14.38
2023-02-05T01:33:19.387Z,15.52
2023-02-05T01:35:46.468Z,13.82
2023-02-05T01:38:13.500Z,21.63
2023-02-05T01:40:40.876Z,19.35
2023-02-05T01:43:13.121Z,20.42
2023-02-05T01:45:51.636Z,16.92
2023-02-05T01:48:27.906Z,16.95
2023-02-05T01:50:59.391Z,17.42
2023-02-05T01:53:30.318Z,17.92
2023-02-05T01:56:01.587Z,23.73
2023-02-05T01:58:32.625Z,18.50
2023-02-05T02:00:59.704Z,25.50
2023-02-05T02:03:30.416Z,26.23
2023-02-05T02:05:57.547Z,26.90
2023-02-05T02:08:24.475Z,45.50
2023-02-05T02:10:52.698Z,25.90
2023-02-05T02:13:22.894Z,26.83
2023-02-05T02:15:50.447Z,32.13
2023-02-05T02:18:28.648Z,29.13
2023-02-05T02:21:19.255Z,29.63
2023-02-05T02:24:14.098Z,25.35
2023-02-05T02:27:10.930Z,24.85
2023-02-05T02:29:57.541Z,21.70
2023-02-05T02:32:49.433Z,21.13
2023-02-05T02:35:47.282Z,24.65
2023-02-05T02:38:33.526Z,23.23
2023-02-05T02:41:11.876Z,24.45
2023-02-05T02:44:10.977Z,22.83
2023-02-05T02:46:44.449Z,19.88
2023-02-05T02:49:35.245Z,22.17
2023-02-05T02:52:06.361Z,27.98
2023-02-05T02:54:36.233Z,18.63
2023-02-05T02:57:07.894Z,18.67
2023-02-05T02:59:38.288Z,19.83
2023-02-05T03:02:06.650Z,19.20
2023-02-05T03:04:44.451Z,18.77
2023-02-05T03:07:17.684Z,26.58
2023-02-05T03:10:03.232Z,19.52
2023-02-05T03:12:30.809Z,18.70
2023-02-05T03:14:57.795Z,19.25
2023-02-05T03:17:26.141Z,21.67
2023-02-05T03:19:59.590Z,17.30
2023-02-05T03:22:26.144Z,23.88
2023-02-05T03:24:53.324Z,25.08
2023-02-05T03:27:23.034Z,23.10
2023-02-05T03:29:50.574Z,22.15
2023-02-05T03:32:17.099Z,18.67
2023-02-05T03:35:01.848Z,22.60
2023-02-05T03:37:43.635Z,23.75
2023-02-05T03:40:28.432Z,24.40
2023-02-05T03:43:13.155Z,24.50
2023-02-05T03:46:01.335Z,20.60
2023-02-05T03:48:37.964Z,21.00
2023-02-05T03:51:16.417Z,20.70
2023-02-05T03:54:01.070Z,26.20
2023-02-05T03:56:36.099Z,27.98
2023-02-05T03:59:04.348Z,27.80
2023-02-05T04:01:31.970Z,32.25
2023-02-05T04:03:58.542Z,35.53
2023-02-05T04:06:25.126Z,41.20
2023-02-05T04:08:51.749Z,41.78
2023-02-05T04:11:18.282Z,42.50
2023-02-05T04:13:44.942Z,44.33
2023-02-05T04:16:11.558Z,43.97
2023-02-05T04:18:38.075Z,46.70
2023-02-05T04:21:04.996Z,47.42
2023-02-05T04:23:31.866Z,45.53
2023-02-05T04:25:58.420Z,46.58
2023-02-05T04:28:24.975Z,48.80
2023-02-05T04:30:51.831Z,51.40
2023-02-05T04:33:18.431Z,45.03
2023-02-05T04:35:45.047Z,49.85
2023-02-05T04:38:11.785Z,50.03
2023-02-05T04:40:38.370Z,48.88
2023-02-05T04:43:04.954Z,50.03
2023-02-05T04:45:33.604Z,54.08
2023-02-05T04:48:00.892Z,55.95
2023-02-05T04:50:27.571Z,47.63
2023-02-05T04:52:54.417Z,53.08
2023-02-05T04:55:21.267Z,52.13
2023-02-05T04:57:47.809Z,51.97
2023-02-05T05:00:15.145Z,51.05
2023-02-05T05:02:41.732Z,53.58
2023-02-05T05:05:08.901Z,52.05
2023-02-05T05:07:35.561Z,57.05
2023-02-05T05:10:02.105Z,51.03
2023-02-05T05:12:28.671Z,49.28
2023-02-05T05:14:56.010Z,57.03
2023-02-05T05:17:22.544Z,48.92
2023-02-05T05:19:49.089Z,52.17
2023-02-05T05:22:15.684Z,51.80
2023-02-05T05:24:42.237Z,54.92
2023-02-05T05:27:08.828Z,50.97
2023-02-05T05:29:36.099Z,53.85
2023-02-05T05:32:02.768Z,51.15
2023-02-05T05:34:29.370Z,51.72
2023-02-05T05:36:55.940Z,53.85
2023-02-05T05:39:41.436Z,59.60
2023-02-05T05:42:30.444Z,58.78
2023-02-05T05:44:57.004Z,52.10
2023-02-05T05:47:23.562Z,59.05
2023-02-05T05:49:50.200Z,56.67
2023-02-05T05:52:16.934Z,52.42
2023-02-05T05:54:43.458Z,59.15
2023-02-05T05:57:10.123Z,54.55
2023-02-05T05:59:36.833Z,41.33
2023-02-05T06:02:04.593Z,42.50
2023-02-05T06:04:31.286Z,40.05
2023-02-05T06:06:59.252Z,47.08
2023-02-05T06:09:25.839Z,47.53
2023-02-05T06:11:52.377Z,52.42
2023-02-05T06:14:18.954Z,48.83
2023-02-05T06:16:45.549Z,52.20
2023-02-05T06:19:12.205Z,49.65
2023-02-05T06:21:38.720Z,50.10
2023-02-05T06:24:05.636Z,47.63
2023-02-05T06:26:32.166Z,40.72
2023-02-05T06:29:03.218Z,41.50
2023-02-05T06:31:30.967Z,36.07
2023-02-05T06:33:57.624Z,34.65
2023-02-05T06:36:24.491Z,35.35
2023-02-05T06:38:51.052Z,40.97
2023-02-05T06:41:17.583Z,41.67
2023-02-05T06:43:44.206Z,40.00
2023-02-05T06:46:10.764Z,43.05
2023-02-05T06:48:37.308Z,48.20
2023-02-05T06:51:04.183Z,48.80
2023-02-05T06:53:30.691Z,51.63
2023-02-05T06:56:00.085Z,44.72
2023-02-05T06:58:26.758Z,46.13
2023-02-05T07:00:53.309Z,36.10
2023-02-05T07:03:19.917Z,41.63
2023-02-05T07:05:46.442Z,42.17
2023-02-05T07:08:13.046Z,37.03
2023-02-05T07:10:39.641Z,35.95
2023-02-05T07:13:06.203Z,31.02
2023-02-05T07:15:33.284Z,34.30
2023-02-05T07:18:00.116Z,25.52
2023-02-05T07:20:26.774Z,23.20
2023-02-05T07:22:53.295Z,18.48
2023-02-05T07:25:19.883Z,20.88
2023-02-05T07:27:46.526Z,19.20
2023-02-05T07:30:13.763Z,20.27
2023-02-05T07:32:40.354Z,20.20
2023-02-05T07:35:06.998Z,19.13
2023-02-05T07:37:33.602Z,13.57
2023-02-05T07:40:00.198Z,14.63
2023-02-05T07:42:26.780Z,15.18
2023-02-05T07:44:53.305Z,14.30
2023-02-05T07:47:19.865Z,14.68
2023-02-05T07:49:46.402Z,18.42
2023-02-05T07:52:12.980Z,16.83
2023-02-05T07:54:40.079Z,13.23
2023-02-05T07:57:07.068Z,14.10
2023-02-05T07:59:33.822Z,16.83
2023-02-05T08:02:00.396Z,17.42
2023-02-05T08:04:27.053Z,13.63
2023-02-05T08:06:53.734Z,15.25
2023-02-05T08:09:20.321Z,16.88
2023-02-05T08:11:46.976Z,19.73
2023-02-05T08:14:13.531Z,22.58
2023-02-05T08:16:40.573Z,19.50
2023-02-05T08:19:12.522Z,21.13
2023-02-05T08:21:39.396Z,19.23
2023-02-05T08:24:06.123Z,18.52
2023-02-05T08:26:32.717Z,19.73
2023-02-05T08:28:59.906Z,21.25
2023-02-05T08:31:26.890Z,19.13
2023-02-05T08:33:54.975Z,20.50
2023-02-05T08:36:21.538Z,21.33
2023-02-05T08:38:48.646Z,22.67
2023-02-05T08:41:15.588Z,18.55
2023-02-05T08:43:47.946Z,18.17
2023-02-05T08:46:19.379Z,16.67
2023-02-05T08:48:48.254Z,15.10
2023-02-05T08:51:15.363Z,15.35
2023-02-05T08:53:42.285Z,16.15
2023-02-05T08:56:10.920Z,14.85
2023-02-05T08:58:38.995Z,13.60
2023-02-05T09:01:08.891Z,18.23
2023-02-05T09:03:35.521Z,14.85
2023-02-05T09:06:08.679Z,16.80
2023-02-05T09:08:36.052Z,17.92
2023-02-05T09:11:03.631Z,19.90
2023-02-05T09:13:30.237Z,16.67
2023-02-05T09:15:57.026Z,14.93
2023-02-05T09:18:23.619Z,17.33
2023-02-05T09:20:51.221Z,19.27
2023-02-05T09:23:19.104Z,16.05
2023-02-05T09:25:46.021Z,16.85
2023-02-05T09:28:14.414Z,17.10
2023-02-05T09:30:43.617Z,20.90
2023-02-05T09:33:11.214Z,19.50
2023-02-05T09:35:38.051Z,14.95
2023-02-05T09:38:05.706Z,19.85
2023-02-05T09:40:55.291Z,19.73
2023-02-05T09:43:52.722Z,17.95
2023-02-05T09:46:56.139Z,16.63
2023-02-05T09:49:30.268Z,16.40
2023-02-05T09:52:09.834Z,14.80
2023-02-05T09:54:42.010Z,15.73
2023-02-05T09:57:15.382Z,15.43
2023-02-05T09:59:45.942Z,16.65
2023-02-05T10:02:34.100Z,14.35
2023-02-05T10:05:00.697Z,18.63
2023-02-05T10:07:42.202Z,15.10
2023-02-05T10:10:29.941Z,13.45
2023-02-05T10:13:30.673Z,11.63
2023-02-05T10:16:32.164Z,15.43
2023-02-05T10:19:35.230Z,14.43
2023-02-05T10:22:12.788Z,10.32
2023-02-05T10:24:57.468Z,10.13
2023-02-05T10:27:35.407Z,15.23
2023-02-05T10:30:24.715Z,11.60
2023-02-05T10:33:08.360Z,11.27
2023-02-05T10:35:44.663Z,12.00
2023-02-05T10:38:24.318Z,7.53
2023-02-05T10:41:00.368Z,8.93
2023-02-05T10:43:40.553Z,10.93
2023-02-05T10:46:13.351Z,8.77
2023-02-05T10:48:45.340Z,6.70
2023-02-05T10:53:42.042Z,6.20
2023-02-05T10:56:14.727Z,3.70
2023-02-05T10:58:41.538Z,3.13
2023-02-05T11:01:14.643Z,4.65
2023-02-05T11:03:48.257Z,4.65
2023-02-05T11:06:15.636Z,5.13
2023-02-05T11:08:44.349Z,2.60
2023-02-05T11:11:40.227Z,5.50
2023-02-05T11:14:07.762Z,2.85
2023-02-05T11:16:39.133Z,13.13
2023-02-05T11:19:18.813Z,6.03
2023-02-05T11:21:46.836Z,4.70
2023-02-05T11:24:29.038Z,5.97
2023-02-05T11:29:41.075Z,3.20
2023-02-05T11:32:31.891Z,1.38
2023-02-05T11:35:18.164Z,2.90
2023-02-05T11:37:47.543Z,3.22
2023-02-05T11:40:22.825Z,3.97
2023-02-05T11:43:24.233Z,4.70
2023-02-05T11:45:53.803Z,1.13
2023-02-05T11:48:28.577Z,1.25
2023-02-05T11:50:55.329Z,2.35
2023-02-05T11:53:22.478Z,0.60
2023-02-05T11:55:56.610Z,3.55
2023-02-05T11:58:37.023Z,1.55
2023-02-05T12:01:20.212Z,1.15
2023-02-05T12:04:14.784Z,1.00
2023-02-05T12:06:53.439Z,0.95
2023-02-05T12:09:22.701Z,1.73
2023-02-05T12:12:23.551Z,1.70
2023-02-05T12:15:19.581Z,3.35
2023-02-05T12:18:16.563Z,1.90
2023-02-05T12:21:18.220Z,2.08
2023-02-05T12:24:12.420Z,0.83
2023-02-05T12:26:47.329Z,1.67
2023-02-05T12:29:42.017Z,2.55
2023-02-05T12:32:32.837Z,2.80
2023-02-05T12:35:09.894Z,3.33
2023-02-05T12:37:51.399Z,4.00
2023-02-05T12:40:40.943Z,1.38
2023-02-05T12:43:25.976Z,1.95
2023-02-05T12:46:07.853Z,8.77
2023-02-05T12:48:48.814Z,4.78
2023-02-05T12:51:27.280Z,5.32
2023-02-05T12:54:11.774Z,4.53
2023-02-05T12:56:41.369Z,3.25
2023-02-05T12:59:14.252Z,4.95
2023-02-05T13:01:49.192Z,5.47
2023-02-05T13:04:24.004Z,4.68
2023-02-05T13:07:00.649Z,3.75
2023-02-05T13:09:56.717Z,2.90
2023-02-05T13:12:27.285Z,2.88
2023-02-05T13:15:02.737Z,4.38
2023-02-05T13:17:40.469Z,1.88
2023-02-05T13:20:19.953Z,4.30
2023-02-05T13:23:23.797Z,3.05
2023-02-05T13:26:08.648Z,2.03
2023-02-05T13:28:42.740Z,6.72
2023-02-05T13:31:24.442Z,4.35
2023-02-05T13:33:53.786Z,7.82
2023-02-05T13:36:27.353Z,7.85
2023-02-05T13:39:02.094Z,6.57
2023-02-05T13:42:02.132Z,7.55
2023-02-05T13:44:51.198Z,6.18
2023-02-05T13:47:43.061Z,6.10
2023-02-05T13:50:42.060Z,8.70
2023-02-05T13:53:37.642Z,8.15
2023-02-05T13:56:41.744Z,9.40
2023-02-05T13:59:37.952Z,4.90
2023-02-05T14:02:24.549Z,4.07
2023-02-05T14:04:54.838Z,8.65
2023-02-05T14:07:44.186Z,5.43
2023-02-05T14:10:28.389Z,7.35
2023-02-05T14:13:19.397Z,7.90
2023-02-05T14:15:46.408Z,7.35
2023-02-05T14:18:40.825Z,3.90
2023-02-05T14:21:46.258Z,6.53
2023-02-05T14:24:40.391Z,8.73
2023-02-05T14:27:25.825Z,8.57
2023-02-05T14:29:53.547Z,10.40
2023-02-05T14:32:26.212Z,9.20
2023-02-05T14:34:59.761Z,12.52
2023-02-05T14:37:37.151Z,7.97
2023-02-05T14:40:25.242Z,9.80
2023-02-05T14:43:08.439Z,7.22
2023-02-05T14:45:43.884Z,8.43
2023-02-05T14:48:28.487Z,8.82
2023-02-05T14:51:08.231Z,9.85
2023-02-05T14:53:38.071Z,14.48
2023-02-05T14:56:05.367Z,10.38
2023-02-05T14:58:40.934Z,8.88
2023-02-05T15:01:30.475Z,10.60
2023-02-05T15:04:02.130Z,9.18
2023-02-05T15:06:30.591Z,7.10
2023-02-05T15:09:17.098Z,9.38
2023-02-05T15:12:14.396Z,10.48
2023-02-05T15:14:51.975Z,9.70
2023-02-05T15:17:32.230Z,11.65
2023-02-05T15:20:05.936Z,9.52
2023-02-05T15:22:38.511Z,18.58
2023-02-05T15:25:14.828Z,10.88
2023-02-05T15:27:49.860Z,9.40
2023-02-05T15:30:22.253Z,10.35
2023-02-05T15:32:53.954Z,10.70
2023-02-05T15:35:25.245Z,11.35
2023-02-05T15:37:55.961Z,8.02
2023-02-05T15:40:26.919Z,13.27
2023-02-05T15:42:58.400Z,11.55
2023-02-05T15:45:28.587Z,15.82
2023-02-05T15:48:02.941Z,17.27
2023-02-05T15:50:31.217Z,12.18
2023-02-05T15:52:58.204Z,10.73
2023-02-05T15:55:27.676Z,13.68
2023-02-05T15:58:00.665Z,10.55
2023-02-05T16:00:30.110Z,8.75
2023-02-05T16:02:58.950Z,7.63
2023-02-05T16:05:27.097Z,8.82
2023-02-05T16:07:58.883Z,8.85
2023-02-05T16:10:28.325Z,9.98
2023-02-05T16:12:57.919Z,10.73
2023-02-05T16:15:31.069Z,9.30
2023-02-05T16:18:01.797Z,10.18
2023-02-05T16:20:34.365Z,18.70
2023-02-05T16:23:06.286Z,10.95
2023-02-05T16:25:42.115Z,11.40
2023-02-05T16:28:18.159Z,8.35
2023-02-05T16:30:48.248Z,7.32
2023-02-05T16:33:38.144Z,7.07
2023-02-05T16:36:15.136Z,7.70
2023-02-05T16:38:41.778Z,6.65
2023-02-05T16:41:30.712Z,5.63
2023-02-05T16:44:01.119Z,6.43
2023-02-05T16:46:31.827Z,9.65
2023-02-05T16:49:04.563Z,6.78
2023-02-05T16:51:51.465Z,9.57
2023-02-05T16:54:17.961Z,6.50
2023-02-05T16:56:47.397Z,9.07
2023-02-05T16:59:21.308Z,7.60
2023-02-05T17:01:48.022Z,9.02
2023-02-05T17:04:30.807Z,7.60
2023-02-05T17:07:00.098Z,5.30
2023-02-05T17:09:35.963Z,6.70
2023-02-05T17:12:27.340Z,5.45
2023-02-05T17:14:56.409Z,3.67
2023-02-05T17:17:25.050Z,6.68
2023-02-05T17:20:10.026Z,4.78
2023-02-05T17:22:36.658Z,8.73
2023-02-05T17:25:05.675Z,10.35
2023-02-05T17:27:37.065Z,9.88
2023-02-05T17:30:10.841Z,7.63
2023-02-05T17:32:37.827Z,7.18
2023-02-05T17:35:16.539Z,9.77
2023-02-05T17:37:43.402Z,8.38
2023-02-05T17:40:13.081Z,8.73
2023-02-05T17:42:39.788Z,11.43
2023-02-05T17:45:28.577Z,9.88
2023-02-05T17:47:55.226Z,7.72
2023-02-05T17:50:23.516Z,8.55
2023-02-05T17:52:52.213Z,5.00
2023-02-05T17:55:20.256Z,8.10
2023-02-05T17:57:47.127Z,7.80
2023-02-05T18:00:17.447Z,9.70
2023-02-05T18:02:44.064Z,9.80
2023-02-05T18:05:13.720Z,7.57
2023-02-05T18:07:47.649Z,7.05
2023-02-05T18:10:19.324Z,6.47
2023-02-05T18:12:45.976Z,9.95
2023-02-05T18:15:12.841Z,5.72
2023-02-05T18:17:40.457Z,6.95
2023-02-05T18:20:08.643Z,7.90
2023-02-05T18:22:35.528Z,6.40
2023-02-05T18:25:02.267Z,5.10
2023-02-05T18:27:28.865Z,7.55
2023-02-05T18:29:55.465Z,7.88
2023-02-05T18:32:22.526Z,10.73
2023-02-05T18:34:49.320Z,7.07
2023-02-05T18:37:16.690Z,8.98
2023-02-05T18:39:43.914Z,8.43
2023-02-05T18:42:12.764Z,8.63
2023-02-05T18:44:39.933Z,5.50
2023-02-05T18:47:07.290Z,5.97
2023-02-05T18:49:34.936Z,9.65
2023-02-05T18:52:02.139Z,7.85
2023-02-05T18:54:28.923Z,6.40
2023-02-05T18:56:56.445Z,6.13
2023-02-05T18:59:25.691Z,6.68
2023-02-05T19:01:52.832Z,9.10
2023-02-05T19:04:21.010Z,4.45
2023-02-05T19:06:53.403Z,5.22
2023-02-05T19:09:22.224Z,7.78
2023-02-05T19:11:49.558Z,10.88
2023-02-05T19:14:18.721Z,6.68
2023-02-05T19:16:47.161Z,6.15
2023-02-05T19:19:20.144Z,11.20
2023-02-05T19:21:48.821Z,8.93
2023-02-05T19:24:17.323Z,6.65
2023-02-05T19:26:44.843Z,5.03
2023-02-05T19:29:17.106Z,6.53
2023-02-05T19:31:44.999Z,4.32
2023-02-05T19:34:12.028Z,9.88
2023-02-05T19:36:39.046Z,10.13
2023-02-05T19:39:08.314Z,6.63
2023-02-05T19:41:36.925Z,8.45
2023-02-05T19:44:06.031Z,5.07
2023-02-05T19:46:36.844Z,8.00
2023-02-05T19:49:11.754Z,8.90
2023-02-05T19:51:38.682Z,10.05
2023-02-05T19:54:06.687Z,14.00
2023-02-05T19:56:35.695Z,9.10
2023-02-05T19:59:02.294Z,9.35
2023-02-05T20:01:30.969Z,13.65
2023-02-05T20:04:06.002Z,11.85
2023-02-05T20:06:32.642Z,8.57
2023-02-05T20:09:01.030Z,14.43
2023-02-05T20:11:30.308Z,12.80
2023-02-05T20:14:00.564Z,10.70
2023-02-05T20:16:27.467Z,14.75
2023-02-05T20:18:55.934Z,10.80
2023-02-05T20:21:23.254Z,15.18
2023-02-05T20:23:50.523Z,11.98
2023-02-05T20:26:22.212Z,14.63
2023-02-05T20:29:12.856Z,13.38
2023-02-05T20:31:43.539Z,15.55
2023-02-05T20:34:22.605Z,13.60
2023-02-05T20:36:58.340Z,18.15
2023-02-05T20:39:28.775Z,14.30
2023-02-05T20:41:57.964Z,13.48
2023-02-05T20:44:32.084Z,15.80
2023-02-05T20:46:58.764Z,16.50
2023-02-05T20:49:25.704Z,15.82
2023-02-05T20:51:53.263Z,20.38
2023-02-05T20:54:20.542Z,15.35
2023-02-05T20:56:50.226Z,15.82
2023-02-05T20:59:16.787Z,25.55
2023-02-05T21:01:43.430Z,15.43
2023-02-05T21:04:10.199Z,18.10
2023-02-05T21:06:39.623Z,16.60
2023-02-05T21:09:07.598Z,19.23
2023-02-05T21:11:34.256Z,19.05
2023-02-05T21:14:00.916Z,19.02
2023-02-05T21:16:28.010Z,19.02
2023-02-05T21:18:55.330Z,15.43
2023-02-05T21:21:28.036Z,18.25
2023-02-05T21:23:56.987Z,13.18
2023-02-05T21:26:29.227Z,22.27
2023-02-05T21:28:58.871Z,15.70
2023-02-05T21:31:33.724Z,14.85
2023-02-05T21:34:05.710Z,14.77
2023-02-05T21:36:32.667Z,16.15
2023-02-05T21:38:59.300Z,22.55
2023-02-05T21:41:26.204Z,15.30
2023-02-05T21:43:57.621Z,20.85
2023-02-05T21:46:25.702Z,13.82
2023-02-05T21:48:55.078Z,13.77
2023-02-05T21:51:24.478Z,22.83
2023-02-05T21:53:57.385Z,27.95
2023-02-05T21:56:29.722Z,15.20
2023-02-05T21:58:56.603Z,24.27
2023-02-05T22:01:26.395Z,24.30
2023-02-05T22:03:59.504Z,22.65
2023-02-05T22:06:28.500Z,18.40
2023-02-05T22:08:56.379Z,23.80
2023-02-05T22:11:24.194Z,22.45
2023-02-05T22:13:52.896Z,23.90
2023-02-05T22:16:25.320Z,27.52
2023-02-05T22:18:52.910Z,21.17
2023-02-05T22:21:19.400Z,22.15
2023-02-05T22:23:50.549Z,28.58
2023-02-05T22:26:19.102Z,25.40
2023-02-05T22:28:46.404Z,24.70
2023-02-05T22:31:15.221Z,22.67
2023-02-05T22:33:44.252Z,28.10
2023-02-05T22:36:12.265Z,24.48
2023-02-05T22:38:40.516Z,22.13
2023-02-05T22:41:12.313Z,28.67
2023-02-05T22:43:39.451Z,27.25
2023-02-05T22:46:15.360Z,24.52
2023-02-05T22:48:44.014Z,20.80
2023-02-05T22:51:13.636Z,26.23
2023-02-05T22:53:40.320Z,19.00
2023-02-05T22:56:09.646Z,24.45
2023-02-05T22:58:39.206Z,18.85
2023-02-05T23:01:10.686Z,24.50
2023-02-05T23:03:38.804Z,22.63
2023-02-05T23:06:20.577Z,21.73
2023-02-05T23:08:52.628Z,21.58
2023-02-05T23:13:46.609Z,24.50
2023-02-05T23:16:15.303Z,23.02
2023-02-05T23:18:43.019Z,24.02
2023-02-05T23:21:12.282Z,27.67
2023-02-05T23:23:38.873Z,24.27
2023-02-05T23:26:10.353Z,30.40
2023-02-05T23:28:36.999Z,22.58
2023-02-05T23:31:04.410Z,22.67
2023-02-05T23:33:32.146Z,26.00
2023-02-05T23:35:59.043Z,27.58
2023-02-05T23:38:25.927Z,22.90
2023-02-05T23:40:54.322Z,25.52
2023-02-05T23:43:21.614Z,16.88
2023-02-05T23:45:49.617Z,25.77
2023-02-05T23:48:16.188Z,24.45
2023-02-05T23:50:43.821Z,24.80
2023-02-05T23:53:13.499Z,27.80
2023-02-05T23:55:44.112Z,31.77
2023-02-05T23:58:11.166Z,22.55
